Time;durP1;ratioP1;P1;durP2;ratioP2;P2;SDS_P1;SDS_P2;PMS_P1;PMS_P2;Temp;Humidity;BMP_temperature;BMP_pressure;BME280_temperature;BME280_humidity;BME280_pressure;Samples;Min_cycle;Max_cycle;Signal;HPM_P1;HPM_P2
2023/03/08 00:01:42;;;;;;;;;;;;;;;;;;5053106;28;1988;-48
2023/03/08 00:04:10;;;;;;;;;;;;;;;;;;5052932;28;1962;-46
2023/03/08 00:06:37;;;;;;;;;;;;;;;;;;5052996;28;1939;-46
2023/03/08 00:09:04;;;;;;;;;;;;;;;;;;5052665;28;1911;-46
2023/03/08 00:11:31;;;;;;;;;;;;;;;;;;5052904;28;2016;-49
2023/03/08 00:14:00;;;;;;;;;;;;;;;;;;5053033;28;1857;-46
2023/03/08 00:16:27;;;;;;;;;;;;;;;;;;5052826;28;1809;-47
2023/03/08 00:18:55;;;;;;;;;;;;;;;;;;5052880;28;2092;-46
2023/03/08 00:21:22;;;;;;;;;;;;;;;;;;5052648;28;1724;-47
2023/03/08 00:23:53;;;;;;;;;;;;;;;;;;5052544;28;1971;-44
2023/03/08 00:26:20;;;;;;;;;;;;;;;;;;5052845;28;2168;-46
2023/03/08 00:28:47;;;;;;;;;;;;;;;;;;5052694;28;2028;-46
2023/03/08 00:31:15;;;;;;;;;;;;;;;;;;5052486;28;1915;-46
2023/03/08 00:33:42;;;;;;;;;;;;;;;;;;5018378;28;2103;-46
2023/03/08 00:36:14;;;;;;;;;;;;;;;;;;5034615;28;1833;-48
2023/03/08 00:38:41;;;;;;;;;;;;;;;;;;5052322;28;1750;-46
2023/03/08 00:41:09;;;;;;;;;;;;;;;;;;5052360;28;1792;-46
2023/03/08 00:43:36;;;;;;;;;;;;;;;;;;5052330;28;1912;-47
2023/03/08 00:46:05;;;;;;;;;;;;;;;;;;5034546;28;1863;-47
2023/03/08 00:48:32;;;;;;;;;;;;;;;;;;5052555;28;1809;-47
2023/03/08 00:50:59;;;;;;;;;;;;;;;;;;5051998;28;1927;-47
2023/03/08 00:53:27;;;;;;;;;;;;;;;;;;5052018;28;2198;-45
2023/03/08 00:55:55;;;;;;;;;;;;;;;;;;5052227;28;1989;-49
2023/03/08 00:58:24;;;;;;;;;;;;;;;;;;5034147;28;1630;-44
2023/03/08 01:00:52;;;;;;;;;;;;;;;;;;5051828;28;1897;-47
2023/03/08 01:03:21;;;;;;;;;;;;;;;;;;5051671;28;2005;-46
2023/03/08 01:05:50;;;;;;;;;;;;;;;;;;5051727;28;2073;-44
2023/03/08 01:08:19;;;;;;;;;;;;;;;;;;5033447;28;2271;-45
2023/03/08 01:10:50;;;;;;;;;;;;;;;;;;5051771;28;2185;-49
2023/03/08 01:13:19;;;;;;;;;;;;;;;;;;5033854;28;1910;-55
2023/03/08 01:15:46;;;;;;;;;;;;;;;;;;5051803;28;2123;-51
2023/03/08 01:18:13;;;;;;;;;;;;;;;;;;5051615;28;1963;-55
2023/03/08 01:20:40;;;;;;;;;;;;;;;;;;5051578;28;2000;-48
2023/03/08 01:23:07;;;;;;;;;;;;;;;;;;5051473;28;1989;-45
2023/03/08 01:25:35;;;;;;;;;;;;;;;;;;5033894;28;1849;-45
2023/03/08 01:28:02;;;;;;;;;;;;;;;;;;5033735;28;2109;-45
2023/03/08 01:30:29;;;;;;;;;;;;;;;;;;5051077;28;2086;-44
2023/03/08 01:32:57;;;;;;;;;;;;;;;;;;5033550;28;2044;-48
2023/03/08 01:35:24;;;;;;;;;;;;;;;;;;5051253;28;2046;-46
2023/03/08 01:37:54;;;;;;;;;;;;;;;;;;5051284;28;1923;-45
2023/03/08 01:40:22;;;;;;;;;;;;;;;;;;5033373;28;1976;-46
2023/03/08 01:42:49;;;;;;;;;;;;;;;;;;5051094;28;2080;-44
2023/03/08 01:45:36;;;;;;;;;;;;;;;;;;5051016;28;1738;-47
2023/03/08 01:48:03;;;;;;;;;;;;;;;;;;5033595;28;1707;-56
2023/03/08 01:50:53;;;;;;;;;;;;;;;;;;5050680;28;1987;-55
2023/03/08 01:53:20;;;;;;;;;;;;;;;;;;5033504;28;2164;-59
2023/03/08 01:55:48;;;;;;;;;;;;;;;;;;5051036;28;2021;-50
2023/03/08 01:58:15;;;;;;;;;;;;;;;;;;5033057;28;1603;-56
2023/03/08 02:00:42;;;;;;;;;;;;;;;;;;5032978;28;1570;-50
2023/03/08 02:03:10;;;;;;;;;;;;;;;;;;5050209;28;2099;-48
2023/03/08 02:05:39;;;;;;;;;;;;;;;;;;5051058;28;1721;-57
2023/03/08 02:08:13;;;;;;;;;;;;;;;;;;5032950;28;1950;-60
2023/03/08 02:10:42;;;;;;;;;;;;;;;;;;5066154;28;2080;-59
2023/03/08 02:13:10;;;;;;;;;;;;;;;;;;5051367;28;1969;-57
2023/03/08 02:15:41;;;;;;;;;;;;;;;;;;5066232;28;2040;-56
2023/03/08 02:18:08;;;;;;;;;;;;;;;;;;5033276;28;2023;-56
2023/03/08 02:20:37;;;;;;;;;;;;;;;;;;5050901;28;1991;-45
2023/03/08 02:23:24;;;;;;;;;;;;;;;;;;5050824;28;1957;-56
2023/03/08 02:25:53;;;;;;;;;;;;;;;;;;5050467;28;1732;-59
2023/03/08 02:28:21;;;;;;;;;;;;;;;;;;5050882;28;1900;-46
2023/03/08 02:30:48;;;;;;;;;;;;;;;;;;5050338;28;1920;-56
2023/03/08 02:33:16;;;;;;;;;;;;;;;;;;5032498;28;1964;-46
2023/03/08 02:35:44;;;;;;;;;;;;;;;;;;5050509;28;1434;-57
2023/03/08 02:38:12;;;;;;;;;;;;;;;;;;5050774;28;1677;-45
2023/03/08 02:40:39;;;;;;;;;;;;;;;;;;5050782;28;2006;-45
2023/03/08 02:43:07;;;;;;;;;;;;;;;;;;5050479;28;1916;-57
2023/03/08 02:45:34;;;;;;;;;;;;;;;;;;5050232;28;2085;-53
2023/03/08 02:48:02;;;;;;;;;;;;;;;;;;5050615;28;2045;-46
2023/03/08 02:50:30;;;;;;;;;;;;;;;;;;5050443;28;2046;-44
2023/03/08 02:52:57;;;;;;;;;;;;;;;;;;5050218;28;1614;-50
2023/03/08 02:55:25;;;;;;;;;;;;;;;;;;5065974;28;2331;-47
2023/03/08 02:57:53;;;;;;;;;;;;;;;;;;5050359;28;1842;-57
2023/03/08 03:00:20;;;;;;;;;;;;;;;;;;5065686;28;2378;-60
2023/03/08 03:02:47;;;;;;;;;;;;;;;;;;5050371;28;2007;-45
2023/03/08 03:05:14;;;;;;;;;;;;;;;;;;5050624;28;1750;-45
2023/03/08 03:07:42;;;;;;;;;;;;;;;;;;5050538;28;1988;-44
2023/03/08 03:10:15;;;;;;;;;;;;;;;;;;5046291;28;1946;-56
2023/03/08 03:12:45;;;;;;;;;;;;;;;;;;5046143;28;1609;-58
2023/03/08 03:15:17;;;;;;;;;;;;;;;;;;5049201;28;1501;-49
2023/03/08 03:17:48;;;;;;;;;;;;;;;;;;5049262;28;2109;-51
2023/03/08 03:20:15;;;;;;;;;;;;;;;;;;5049071;28;1833;-43
2023/03/08 03:22:43;;;;;;;;;;;;;;;;;;5016246;28;1960;-47
2023/03/08 03:25:10;;;;;;;;;;;;;;;;;;5032053;28;1974;-49
2023/03/08 03:27:38;;;;;;;;;;;;;;;;;;5033492;28;2153;-44
2023/03/08 03:30:06;;;;;;;;;;;;;;;;;;5065772;28;2012;-46
2023/03/08 03:32:34;;;;;;;;;;;;;;;;;;5048995;28;1787;-48
2023/03/08 03:35:02;;;;;;;;;;;;;;;;;;5065410;28;1983;-53
2023/03/08 03:37:29;;;;;;;;;;;;;;;;;;5032355;28;1988;-54
2023/03/08 03:39:56;;;;;;;;;;;;;;;;;;5033531;28;1871;-52
2023/03/08 03:42:24;;;;;;;;;;;;;;;;;;5048827;28;2053;-45
2023/03/08 03:45:03;;;;;;;;;;;;;;;;;;5065462;28;2107;-56
2023/03/08 03:47:31;;;;;;;;;;;;;;;;;;5033348;28;1601;-46
2023/03/08 03:50:01;;;;;;;;;;;;;;;;;;5048515;28;1936;-45
2023/03/08 03:52:37;;;;;;;;;;;;;;;;;;5065320;28;1906;-44
2023/03/08 03:55:06;;;;;;;;;;;;;;;;;;5033350;28;1951;-46
2023/03/08 03:57:33;;;;;;;;;;;;;;;;;;5048514;28;2127;-54
2023/03/08 04:00:01;;;;;;;;;;;;;;;;;;5065496;28;1980;-49
2023/03/08 04:02:39;;;;;;;;;;;;;;;;;;5050085;28;1929;-45
2023/03/08 04:05:10;;;;;;;;;;;;;;;;;;5044098;28;10589;-50
2023/03/08 04:07:38;;;;;;;;;;;;;;;;;;5054763;28;2203;-46
2023/03/08 04:10:06;;;;;;;;;;;;;;;;;;5091145;28;1505;-55
2023/03/08 04:12:36;;;;;;;;;;;;;;;;;;5074928;28;1725;-47
2023/03/08 04:15:03;;;;;;;;;;;;;;;;;;5093005;28;2317;-48
2023/03/08 04:17:31;;;;;;;;;;;;;;;;;;5074757;28;2096;-53
2023/03/08 04:20:00;;;;;;;;;;;;;;;;;;5074933;28;1869;-56
2023/03/08 04:22:31;;;;;;;;;;;;;;;;;;5074614;28;1941;-47
2023/03/08 04:25:05;;;;;;;;;;;;;;;;;;5073621;28;2083;-44
2023/03/08 04:27:41;;;;;;;;;;;;;;;;;;5091034;28;1935;-47
2023/03/08 04:30:09;;;;;;;;;;;;;;;;;;5091419;28;2159;-47
2023/03/08 04:32:36;;;;;;;;;;;;;;;;;;5091381;28;1914;-49
2023/03/08 04:35:04;;;;;;;;;;;;;;;;;;5074208;28;1765;-47
2023/03/08 04:37:35;;;;;;;;;;;;;;;;;;5091170;28;2258;-45
2023/03/08 04:40:08;;;;;;;;;;;;;;;;;;5091189;28;1708;-53
2023/03/08 04:42:43;;;;;;;;;;;;;;;;;;5092525;28;1909;-45
2023/03/08 04:45:14;;;;;;;;;;;;;;;;;;5090815;28;1995;-57
2023/03/08 04:47:41;;;;;;;;;;;;;;;;;;5090925;28;2011;-45
2023/03/08 04:50:09;;;;;;;;;;;;;;;;;;5071168;28;9977;-49
2023/03/08 04:52:37;;;;;;;;;;;;;;;;;;5034048;28;1846;-47
2023/03/08 04:55:05;;;;;;;;;;;;;;;;;;5051974;28;2381;-58
2023/03/08 04:57:36;;;;;;;;;;;;;;;;;;5050937;28;1810;-50
2023/03/08 05:00:04;;;;;;;;;;;;;;;;;;5051932;28;1915;-45
2023/03/08 05:02:36;;;;;;;;;;;;;;;;;;5050711;28;1878;-44
2023/03/08 05:05:08;;;;;;;;;;;;;;;;;;5051600;28;1969;-45
2023/03/08 05:07:35;;;;;;;;;;;;;;;;;;5051941;28;1851;-45
2023/03/08 05:10:03;;;;;;;;;;;;;;;;;;5050088;28;2181;-46
2023/03/08 05:12:30;;;;;;;;;;;;;;;;;;5051781;28;1966;-46
2023/03/08 05:14:59;;;;;;;;;;;;;;;;;;5033590;28;1918;-45
2023/03/08 05:17:26;;;;;;;;;;;;;;;;;;5050437;28;2036;-56
2023/03/08 05:19:54;;;;;;;;;;;;;;;;;;5051378;28;2017;-46
2023/03/08 05:22:29;;;;;;;;;;;;;;;;;;5050428;28;2333;-45
2023/03/08 05:24:57;;;;;;;;;;;;;;;;;;5051496;28;1963;-47
2023/03/08 05:27:25;;;;;;;;;;;;;;;;;;5051682;28;1982;-45
2023/03/08 05:29:53;;;;;;;;;;;;;;;;;;5050390;28;2144;-54
2023/03/08 05:32:21;;;;;;;;;;;;;;;;;;5033556;28;1524;-46
2023/03/08 05:34:53;;;;;;;;;;;;;;;;;;5050240;28;1871;-44
2023/03/08 05:37:31;;;;;;;;;;;;;;;;;;5033315;28;1884;-47
2023/03/08 05:40:04;;;;;;;;;;;;;;;;;;5050364;28;2054;-48
2023/03/08 05:42:35;;;;;;;;;;;;;;;;;;5049813;28;2107;-45
2023/03/08 05:45:04;;;;;;;;;;;;;;;;;;5051309;28;1988;-51
2023/03/08 05:47:35;;;;;;;;;;;;;;;;;;5033070;28;2071;-53
2023/03/08 05:50:02;;;;;;;;;;;;;;;;;;5049880;28;1756;-47
2023/03/08 05:52:34;;;;;;;;;;;;;;;;;;5049716;28;2047;-47
2023/03/08 05:55:01;;;;;;;;;;;;;;;;;;5049748;28;2278;-51
2023/03/08 05:57:29;;;;;;;;;;;;;;;;;;5050984;28;1977;-46
2023/03/08 05:59:57;;;;;;;;;;;;;;;;;;5033290;28;2105;-43
2023/03/08 06:02:27;;;;;;;;;;;;;;;;;;5033228;28;1966;-46
2023/03/08 06:04:54;;;;;;;;;;;;;;;;;;5049809;28;2402;-44
2023/03/08 06:07:24;;;;;;;;;;;;;;;;;;5033415;28;1887;-47
2023/03/08 06:09:57;;;;;;;;;;;;;;;;;;5035869;28;1882;-47
2023/03/08 06:12:24;;;;;;;;;;;;;;;;;;5033376;28;2157;-45
2023/03/08 06:14:54;;;;;;;;;;;;;;;;;;5033313;28;2000;-47
2023/03/08 06:17:25;;;;;;;;;;;;;;;;;;5051048;28;1897;-45
2023/03/08 06:19:54;;;;;;;;;;;;;;;;;;5032889;28;1973;-44
2023/03/08 06:22:22;;;;;;;;;;;;;;;;;;5033019;28;1944;-48
2023/03/08 06:24:49;;;;;;;;;;;;;;;;;;5032674;28;2099;-46
2023/03/08 06:27:24;;;;;;;;;;;;;;;;;;5049749;28;1974;-45
2023/03/08 06:29:54;;;;;;;;;;;;;;;;;;5033011;28;2250;-45
2023/03/08 06:32:22;;;;;;;;;;;;;;;;;;5033247;28;2039;-45
2023/03/08 06:34:50;;;;;;;;;;;;;;;;;;5031114;28;1789;-47
2023/03/08 06:37:17;;;;;;;;;;;;;;;;;;5050695;28;1940;-50
2023/03/08 06:39:45;;;;;;;;;;;;;;;;;;5032678;28;2014;-45
2023/03/08 06:42:12;;;;;;;;;;;;;;;;;;5051060;28;1895;-46
2023/03/08 06:44:39;;;;;;;;;;;;;;;;;;5050667;28;1914;-48
2023/03/08 06:47:07;;;;;;;;;;;;;;;;;;5031649;28;2148;-44
2023/03/08 06:49:35;;;;;;;;;;;;;;;;;;5053776;28;2105;-45
2023/03/08 06:52:02;;;;;;;;;;;;;;;;;;5053635;28;1786;-47
2023/03/08 06:54:30;;;;;;;;;;;;;;;;;;5054475;28;1841;-48
2023/03/08 06:56:57;;;;;;;;;;;;;;;;;;5054397;28;1951;-48
2023/03/08 06:59:24;;;;;;;;;;;;;;;;;;5055093;28;2157;-49
2023/03/08 07:01:51;;;;;;;;;;;;;;;;;;5054188;28;2268;-49
2023/03/08 07:04:19;;;;;;;;;;;;;;;;;;5054245;28;1996;-45
2023/03/08 07:06:46;;;;;;;;;;;;;;;;;;5054347;28;2019;-57
2023/03/08 07:09:13;;;;;;;;;;;;;;;;;;5054311;28;1861;-54
2023/03/08 07:11:40;;;;;;;;;;;;;;;;;;5054271;28;2148;-48
2023/03/08 07:14:07;;;;;;;;;;;;;;;;;;5054181;28;1804;-53
2023/03/08 07:16:35;;;;;;;;;;;;;;;;;;5053714;28;2019;-48
2023/03/08 07:19:02;;;;;;;;;;;;;;;;;;5054079;28;2006;-45
2023/03/08 07:21:29;;;;;;;;;;;;;;;;;;5054138;28;1959;-44
2023/03/08 07:23:56;;;;;;;;;;;;;;;;;;5054206;28;1971;-56
2023/03/08 07:26:25;;;;;;;;;;;;;;;;;;5054020;28;2000;-55
2023/03/08 07:28:54;;;;;;;;;;;;;;;;;;5053678;28;1800;-45
2023/03/08 07:31:21;;;;;;;;;;;;;;;;;;5053642;28;2138;-47
2023/03/08 07:33:48;;;;;;;;;;;;;;;;;;5052248;28;2097;-55
2023/03/08 07:36:16;;;;;;;;;;;;;;;;;;5053666;28;2121;-46
2023/03/08 07:38:45;;;;;;;;;;;;;;;;;;5053578;28;1902;-45
2023/03/08 07:41:12;;;;;;;;;;;;;;;;;;5053549;28;1997;-49
2023/03/08 07:43:39;;;;;;;;;;;;;;;;;;5053450;28;1805;-45
2023/03/08 07:46:19;;;;;;;;;;;;;;;;;;5053223;28;1731;-46
2023/03/08 07:48:47;;;;;;;;;;;;;;;;;;5053626;28;2279;-53
2023/03/08 07:51:14;;;;;;;;;;;;;;;;;;5053576;28;1970;-50
2023/03/08 07:53:41;;;;;;;;;;;;;;;;;;5053221;28;1829;-45
2023/03/08 07:56:09;;;;;;;;;;;;;;;;;;5053190;28;2182;-50
2023/03/08 07:58:36;;;;;;;;;;;;;;;;;;5053306;28;1982;-46
2023/03/08 08:01:08;;;;;;;;;;;;;;;;;;5052353;28;1743;-42
2023/03/08 08:03:37;;;;;;;;;;;;;;;;;;5053077;28;1977;-44
2023/03/08 08:06:05;;;;;;;;;;;;;;;;;;5052950;28;1912;-48
2023/03/08 08:08:32;;;;;;;;;;;;;;;;;;5047963;28;1697;-47
2023/03/08 08:10:59;;;;;;;;;;;;;;;;;;5033414;28;2058;-52
2023/03/08 08:13:26;;;;;;;;;;;;;;;;;;5032980;28;1864;-52
2023/03/08 08:16:00;;;;;;;;;;;;;;;;;;5015448;28;1956;-44
2023/03/08 08:18:29;;;;;;;;;;;;;;;;;;5033240;28;2102;-51
2023/03/08 08:21:03;;;;;;;;;;;;;;;;;;5033055;28;1873;-45
2023/03/08 08:23:31;;;;;;;;;;;;;;;;;;5033069;28;1825;-47
2023/03/08 08:25:59;;;;;;;;;;;;;;;;;;5033235;28;2312;-47
2023/03/08 08:28:26;;;;;;;;;;;;;;;;;;5032591;28;2107;-46
2023/03/08 08:30:54;;;;;;;;;;;;;;;;;;5032977;28;1936;-48
2023/03/08 08:33:22;;;;;;;;;;;;;;;;;;5015416;28;1765;-51
2023/03/08 08:35:49;;;;;;;;;;;;;;;;;;5032475;28;2004;-49
2023/03/08 08:38:16;;;;;;;;;;;;;;;;;;5032690;28;1991;-49
2023/03/08 08:40:43;;;;;;;;;;;;;;;;;;5032337;28;1966;-46
2023/03/08 08:43:11;;;;;;;;;;;;;;;;;;5032726;28;1946;-46
2023/03/08 08:45:45;;;;;;;;;;;;;;;;;;5032176;28;2169;-50
2023/03/08 08:48:13;;;;;;;;;;;;;;;;;;5032349;28;2108;-45
2023/03/08 08:50:40;;;;;;;;;;;;;;;;;;5032506;28;2005;-48
2023/03/08 08:53:08;;;;;;;;;;;;;;;;;;5032248;28;2399;-44
2023/03/08 08:55:36;;;;;;;;;;;;;;;;;;5032382;28;2029;-48
2023/03/08 08:58:05;;;;;;;;;;;;;;;;;;4998757;28;1890;-46
2023/03/08 09:00:34;;;;;;;;;;;;;;;;;;5032457;28;1794;-46
2023/03/08 09:03:01;;;;;;;;;;;;;;;;;;5032415;28;1794;-46
2023/03/08 09:05:28;;;;;;;;;;;;;;;;;;5031853;28;1915;-47
2023/03/08 09:07:58;;;;;;;;;;;;;;;;;;5031997;28;1967;-47
2023/03/08 09:10:27;;;;;;;;;;;;;;;;;;5051565;28;2040;-49
2023/03/08 09:12:54;;;;;;;;;;;;;;;;;;5051951;28;1997;-47
2023/03/08 09:15:23;;;;;;;;;;;;;;;;;;5051855;28;1940;-56
2023/03/08 09:17:50;;;;;;;;;;;;;;;;;;5051428;28;1968;-53
2023/03/08 09:20:18;;;;;;;;;;;;;;;;;;5051472;28;1888;-56
2023/03/08 09:22:48;;;;;;;;;;;;;;;;;;5034573;28;1770;-61
2023/03/08 09:25:15;;;;;;;;;;;;;;;;;;5051568;28;1911;-61
2023/03/08 09:27:42;;;;;;;;;;;;;;;;;;5033358;28;2123;-57
2023/03/08 09:30:11;;;;;;;;;;;;;;;;;;5051486;28;2297;-56
2023/03/08 09:32:38;;;;;;;;;;;;;;;;;;5051379;28;1737;-45
2023/03/08 09:35:06;;;;;;;;;;;;;;;;;;5051520;28;1962;-46
2023/03/08 09:37:33;;;;;;;;;;;;;;;;;;5052268;28;2021;-60
2023/03/08 09:40:00;;;;;;;;;;;;;;;;;;5033662;28;1952;-56
2023/03/08 09:42:32;;;;;;;;;;;;;;;;;;5051308;28;1863;-49
2023/03/08 09:45:02;;;;;;;;;;;;;;;;;;5051372;28;1946;-51
2023/03/08 09:47:38;;;;;;;;;;;;;;;;;;5051171;28;2062;-56
2023/03/08 09:50:05;;;;;;;;;;;;;;;;;;5051518;28;2188;-49
2023/03/08 09:52:55;;;;;;;;;;;;;;;;;;5051176;28;2175;-57
2023/03/08 09:55:29;;;;;;;;;;;;;;;;;;5051171;28;1997;-53
2023/03/08 09:58:12;;;;;;;;;;;;;;;;;;5051241;28;2011;-59
2023/03/08 10:00:40;;;;;;;;;;;;;;;;;;5033405;28;1536;-46
2023/03/08 10:03:36;;;;;;;;;;;;;;;;;;5051390;28;1839;-59
2023/03/08 10:06:03;;;;;;;;;;;;;;;;;;5051107;28;2017;-46
2023/03/08 10:08:30;;;;;;;;;;;;;;;;;;5046289;28;1800;-44
2023/03/08 10:11:03;;;;;;;;;;;;;;;;;;5031255;28;2043;-57
2023/03/08 10:13:32;;;;;;;;;;;;;;;;;;5030952;28;2071;-49
2023/03/08 10:16:11;;;;;;;;;;;;;;;;;;5031314;28;1909;-56
2023/03/08 10:18:57;;;;;;;;;;;;;;;;;;5031233;28;1991;-44
2023/03/08 10:21:25;;;;;;;;;;;;;;;;;;5030971;28;1452;-45
2023/03/08 10:24:11;;;;;;;;;;;;;;;;;;5016112;28;2009;-46
2023/03/08 10:26:40;;;;;;;;;;;;;;;;;;5035338;28;2090;-49
2023/03/08 10:29:09;;;;;;;;;;;;;;;;;;5035416;28;1991;-45
2023/03/08 10:31:36;;;;;;;;;;;;;;;;;;5035016;28;1696;-47
2023/03/08 10:34:03;;;;;;;;;;;;;;;;;;5035021;28;1903;-52
2023/03/08 10:36:30;;;;;;;;;;;;;;;;;;5034600;28;1792;-45
2023/03/08 10:39:05;;;;;;;;;;;;;;;;;;5035034;28;2018;-46
2023/03/08 10:41:39;;;;;;;;;;;;;;;;;;5034588;28;1787;-44
2023/03/08 10:44:11;;;;;;;;;;;;;;;;;;5034922;28;2022;-47
2023/03/08 10:46:44;;;;;;;;;;;;;;;;;;5034758;28;2068;-47
2023/03/08 10:49:15;;;;;;;;;;;;;;;;;;5034754;28;1736;-44
2023/03/08 10:52:11;;;;;;;;;;;;;;;;;;5034950;28;1713;-46
2023/03/08 10:54:38;;;;;;;;;;;;;;;;;;5018152;28;1941;-45
2023/03/08 10:57:16;;;;;;;;;;;;;;;;;;5034724;28;1973;-44
2023/03/08 10:59:48;;;;;;;;;;;;;;;;;;5034484;28;1915;-44
2023/03/08 11:02:21;;;;;;;;;;;;;;;;;;5016972;28;1886;-50
2023/03/08 11:04:52;;;;;;;;;;;;;;;;;;5034236;28;2383;-46
2023/03/08 11:07:23;;;;;;;;;;;;;;;;;;5016548;28;1991;-44
2023/03/08 11:09:50;;;;;;;;;;;;;;;;;;5049975;28;1919;-43
2023/03/08 11:12:25;;;;;;;;;;;;;;;;;;5054069;28;1955;-45
2023/03/08 11:14:52;;;;;;;;;;;;;;;;;;5054207;28;2094;-45
2023/03/08 11:17:27;;;;;;;;;;;;;;;;;;5054204;28;1788;-48
2023/03/08 11:19:59;;;;;;;;;;;;;;;;;;5053981;28;2018;-44
2023/03/08 11:22:27;;;;;;;;;;;;;;;;;;5053799;28;2101;-45
2023/03/08 11:25:00;;;;;;;;;;;;;;;;;;5054027;28;2166;-54
2023/03/08 11:27:44;;;;;;;;;;;;;;;;;;5053867;28;2134;-54
2023/03/08 11:30:12;;;;;;;;;;;;;;;;;;5053959;28;1779;-49
2023/03/08 11:32:39;;;;;;;;;;;;;;;;;;5053762;28;1981;-44
2023/03/08 11:35:09;;;;;;;;;;;;;;;;;;5053448;28;2189;-44
2023/03/08 11:37:45;;;;;;;;;;;;;;;;;;5053627;28;1937;-46
2023/03/08 11:40:21;;;;;;;;;;;;;;;;;;5053935;28;1939;-57
2023/03/08 11:43:07;;;;;;;;;;;;;;;;;;5053754;28;1938;-44
2023/03/08 11:45:42;;;;;;;;;;;;;;;;;;5053454;28;2046;-46
2023/03/08 11:48:16;;;;;;;;;;;;;;;;;;5053503;28;2096;-46
2023/03/08 11:50:50;;;;;;;;;;;;;;;;;;5053765;28;2244;-45
2023/03/08 11:53:35;;;;;;;;;;;;;;;;;;5053415;28;1959;-44
2023/03/08 11:56:33;;;;;;;;;;;;;;;;;;5053464;28;2097;-44
2023/03/08 11:59:20;;;;;;;;;;;;;;;;;;5033302;28;1778;-47
2023/03/08 12:01:51;;;;;;;;;;;;;;;;;;5037009;28;1902;-51
2023/03/08 12:04:23;;;;;;;;;;;;;;;;;;5053237;28;2126;-45
2023/03/08 12:06:53;;;;;;;;;;;;;;;;;;5053444;28;2131;-47
2023/03/08 12:09:41;;;;;;;;;;;;;;;;;;5052988;28;1892;-49
2023/03/08 12:12:13;;;;;;;;;;;;;;;;;;5052235;28;2027;-46
2023/03/08 12:14:59;;;;;;;;;;;;;;;;;;5053204;28;1896;-54
2023/03/08 12:17:30;;;;;;;;;;;;;;;;;;5053021;28;2015;-49
2023/03/08 12:19:57;;;;;;;;;;;;;;;;;;5052985;28;2149;-46
2023/03/08 12:22:37;;;;;;;;;;;;;;;;;;5052962;28;1456;-45
2023/03/08 12:25:21;;;;;;;;;;;;;;;;;;5053004;28;2206;-44
2023/03/08 12:27:59;;;;;;;;;;;;;;;;;;5053126;28;1980;-46
2023/03/08 12:30:36;;;;;;;;;;;;;;;;;;5052583;28;1951;-44
2023/03/08 12:33:04;;;;;;;;;;;;;;;;;;5052539;28;1918;-49
2023/03/08 12:35:33;;;;;;;;;;;;;;;;;;5052645;28;1965;-57
2023/03/08 12:38:06;;;;;;;;;;;;;;;;;;5052597;28;1903;-46
2023/03/08 12:40:38;;;;;;;;;;;;;;;;;;5052604;28;1820;-43
2023/03/08 12:43:08;;;;;;;;;;;;;;;;;;5034625;28;1960;-43
2023/03/08 12:45:36;;;;;;;;;;;;;;;;;;5051320;28;2095;-52
2023/03/08 12:48:03;;;;;;;;;;;;;;;;;;5052340;28;1996;-48
2023/03/08 12:50:38;;;;;;;;;;;;;;;;;;5052356;28;1407;-44
2023/03/08 12:53:24;;;;;;;;;;;;;;;;;;5052116;28;2004;-44
2023/03/08 12:56:09;;;;;;;;;;;;;;;;;;5052264;28;1951;-50
2023/03/08 12:58:39;;;;;;;;;;;;;;;;;;5052347;28;1972;-43
2023/03/08 13:01:22;;;;;;;;;;;;;;;;;;5052377;28;2018;-45
2023/03/08 13:03:49;;;;;;;;;;;;;;;;;;5052368;28;2074;-44
2023/03/08 13:06:23;;;;;;;;;;;;;;;;;;5052178;28;2006;-46
2023/03/08 13:08:56;;;;;;;;;;;;;;;;;;5044702;28;2112;-44
2023/03/08 13:11:24;;;;;;;;;;;;;;;;;;5032293;28;2079;-45
2023/03/08 13:13:56;;;;;;;;;;;;;;;;;;5031999;28;1887;-43
2023/03/08 13:16:23;;;;;;;;;;;;;;;;;;5031932;28;1973;-43
2023/03/08 13:19:00;;;;;;;;;;;;;;;;;;5031888;28;1906;-43
2023/03/08 13:21:27;;;;;;;;;;;;;;;;;;5031891;28;2005;-43
2023/03/08 13:24:01;;;;;;;;;;;;;;;;;;5031891;28;2100;-53
2023/03/08 13:26:31;;;;;;;;;;;;;;;;;;5031248;28;1982;-55
2023/03/08 13:29:15;;;;;;;;;;;;;;;;;;5032068;28;2125;-43
2023/03/08 13:31:43;;;;;;;;;;;;;;;;;;5031445;28;2006;-53
2023/03/08 13:34:23;;;;;;;;;;;;;;;;;;5031686;28;2112;-44
2023/03/08 13:36:50;;;;;;;;;;;;;;;;;;5031559;28;1848;-47
2023/03/08 13:39:19;;;;;;;;;;;;;;;;;;5031692;28;1518;-55
2023/03/08 13:41:47;;;;;;;;;;;;;;;;;;5031215;28;1888;-46
2023/03/08 13:44:16;;;;;;;;;;;;;;;;;;5031022;28;2194;-46
2023/03/08 13:46:43;;;;;;;;;;;;;;;;;;5031412;28;2007;-50
2023/03/08 13:49:12;;;;;;;;;;;;;;;;;;5031635;28;2127;-52
2023/03/08 13:51:41;;;;;;;;;;;;;;;;;;5031388;28;2010;-46
2023/03/08 13:54:14;;;;;;;;;;;;;;;;;;5031485;28;1802;-48
2023/03/08 13:56:41;;;;;;;;;;;;;;;;;;5031153;28;2042;-48
2023/03/08 13:59:17;;;;;;;;;;;;;;;;;;5030524;28;1955;-53
2023/03/08 14:01:48;;;;;;;;;;;;;;;;;;5031089;28;1958;-48
2023/03/08 14:04:20;;;;;;;;;;;;;;;;;;5031193;28;1368;-44
2023/03/08 14:07:07;;;;;;;;;;;;;;;;;;5030864;28;1913;-48
2023/03/08 14:09:35;;;;;;;;;;;;;;;;;;5044634;28;1992;-55
2023/03/08 14:12:03;;;;;;;;;;;;;;;;;;5033205;28;2151;-46
2023/03/08 14:14:32;;;;;;;;;;;;;;;;;;5051137;28;2031;-47
2023/03/08 14:17:00;;;;;;;;;;;;;;;;;;5033090;28;2281;-48
2023/03/08 14:19:34;;;;;;;;;;;;;;;;;;5050467;28;1879;-43
2023/03/08 14:22:02;;;;;;;;;;;;;;;;;;5050950;28;2313;-44
2023/03/08 14:24:31;;;;;;;;;;;;;;;;;;5050828;28;1970;-44
2023/03/08 14:27:00;;;;;;;;;;;;;;;;;;5050794;28;1903;-46
2023/03/08 14:29:29;;;;;;;;;;;;;;;;;;5050594;28;1805;-45
2023/03/08 14:31:58;;;;;;;;;;;;;;;;;;5051023;28;1862;-46
2023/03/08 14:34:34;;;;;;;;;;;;;;;;;;5050723;28;1928;-43
2023/03/08 14:37:04;;;;;;;;;;;;;;;;;;5050731;28;1908;-43
2023/03/08 14:39:32;;;;;;;;;;;;;;;;;;5050825;28;1870;-42
2023/03/08 14:42:08;;;;;;;;;;;;;;;;;;5051036;28;1797;-44
2023/03/08 14:44:36;;;;;;;;;;;;;;;;;;5050726;28;1969;-42
2023/03/08 14:47:18;;;;;;;;;;;;;;;;;;5050650;28;1973;-48
2023/03/08 14:49:53;;;;;;;;;;;;;;;;;;5050571;28;2065;-44
2023/03/08 14:52:20;;;;;;;;;;;;;;;;;;5050597;28;2044;-43
2023/03/08 14:54:47;;;;;;;;;;;;;;;;;;5032237;28;2643;-44
2023/03/08 14:57:17;;;;;;;;;;;;;;;;;;5050855;28;1816;-44
2023/03/08 14:59:44;;;;;;;;;;;;;;;;;;5050633;28;1743;-43
2023/03/08 15:02:12;;;;;;;;;;;;;;;;;;5051048;28;1719;-44
2023/03/08 15:04:39;;;;;;;;;;;;;;;;;;5050589;28;1978;-45
2023/03/08 15:07:21;;;;;;;;;;;;;;;;;;5050511;28;1994;-46
2023/03/08 15:09:49;;;;;;;;;;;;;;;;;;5019563;28;1839;-46
2023/03/08 15:12:26;;;;;;;;;;;;;;;;;;5034189;28;1854;-43
2023/03/08 15:15:30;;;;;;;;;;;;;;;;;;5033007;28;1855;-47
2023/03/08 15:18:26;;;;;;;;;;;;;;;;;;5032342;28;2084;-43
2023/03/08 15:21:19;;;;;;;;;;;;;;;;;;5033701;28;1866;-43
2023/03/08 15:24:24;;;;;;;;;;;;;;;;;;5034149;28;1904;-41
2023/03/08 15:27:13;;;;;;;;;;;;;;;;;;5033849;28;2708;-44
2023/03/08 15:29:41;;;;;;;;;;;;;;;;;;5034083;28;1439;-45
2023/03/08 15:32:08;;;;;;;;;;;;;;;;;;5033492;28;2194;-48
2023/03/08 15:34:35;;;;;;;;;;;;;;;;;;5015876;28;1952;-51
2023/03/08 15:37:02;;;;;;;;;;;;;;;;;;5033865;28;2037;-45
2023/03/08 15:39:29;;;;;;;;;;;;;;;;;;5033852;28;2013;-52
2023/03/08 15:41:57;;;;;;;;;;;;;;;;;;5033822;28;2121;-48
2023/03/08 15:44:25;;;;;;;;;;;;;;;;;;5033953;28;1749;-54
2023/03/08 15:46:52;;;;;;;;;;;;;;;;;;5033531;28;1988;-48
2023/03/08 15:49:19;;;;;;;;;;;;;;;;;;5033743;28;1965;-46
2023/03/08 15:51:47;;;;;;;;;;;;;;;;;;5033523;28;2053;-48
2023/03/08 15:54:14;;;;;;;;;;;;;;;;;;5033364;28;1995;-51
2023/03/08 15:56:41;;;;;;;;;;;;;;;;;;5033743;28;2055;-55
2023/03/08 15:59:08;;;;;;;;;;;;;;;;;;5033170;28;2444;-57
2023/03/08 16:01:35;;;;;;;;;;;;;;;;;;5015863;28;1998;-45
2023/03/08 16:04:03;;;;;;;;;;;;;;;;;;5033380;28;2181;-51
2023/03/08 16:06:30;;;;;;;;;;;;;;;;;;5033549;28;1915;-44
2023/03/08 16:08:57;;;;;;;;;;;;;;;;;;5041913;28;1952;-45
2023/03/08 16:11:24;;;;;;;;;;;;;;;;;;5053104;28;2055;-47
2023/03/08 16:13:52;;;;;;;;;;;;;;;;;;5052482;28;2035;-48
2023/03/08 16:16:19;;;;;;;;;;;;;;;;;;5052966;28;1894;-45
2023/03/08 16:18:47;;;;;;;;;;;;;;;;;;5046151;28;2045;-50
2023/03/08 16:21:15;;;;;;;;;;;;;;;;;;5050257;28;1991;-43
2023/03/08 16:23:42;;;;;;;;;;;;;;;;;;5033218;28;2034;-50
2023/03/08 16:26:11;;;;;;;;;;;;;;;;;;5043730;28;1980;-55
2023/03/08 16:28:43;;;;;;;;;;;;;;;;;;5052591;28;2039;-44
2023/03/08 16:31:11;;;;;;;;;;;;;;;;;;5052779;28;2058;-45
2023/03/08 16:33:38;;;;;;;;;;;;;;;;;;5052227;28;2006;-44
2023/03/08 16:36:06;;;;;;;;;;;;;;;;;;5052432;28;1898;-40
2023/03/08 16:38:33;;;;;;;;;;;;;;;;;;5052661;28;1870;-45
2023/03/08 16:41:02;;;;;;;;;;;;;;;;;;5052617;28;1854;-49
2023/03/08 16:43:39;;;;;;;;;;;;;;;;;;5052228;28;1905;-44
2023/03/08 16:46:14;;;;;;;;;;;;;;;;;;5052390;28;1991;-44
2023/03/08 16:48:41;;;;;;;;;;;;;;;;;;5052084;28;2071;-44
2023/03/08 16:51:12;;;;;;;;;;;;;;;;;;5052499;28;1753;-46
2023/03/08 16:53:39;;;;;;;;;;;;;;;;;;5051816;28;2016;-44
2023/03/08 16:56:06;;;;;;;;;;;;;;;;;;5051903;28;2044;-43
2023/03/08 16:58:33;;;;;;;;;;;;;;;;;;5052152;28;2017;-47
2023/03/08 17:01:01;;;;;;;;;;;;;;;;;;5052329;28;1971;-58
2023/03/08 17:03:28;;;;;;;;;;;;;;;;;;5051949;28;1874;-44
2023/03/08 17:05:55;;;;;;;;;;;;;;;;;;5051834;28;2279;-46
2023/03/08 17:08:22;;;;;;;;;;;;;;;;;;5047872;28;2027;-59
2023/03/08 17:10:50;;;;;;;;;;;;;;;;;;5031916;28;1920;-40
2023/03/08 17:13:17;;;;;;;;;;;;;;;;;;5031851;28;1961;-44
2023/03/08 17:15:47;;;;;;;;;;;;;;;;;;5031624;28;1998;-43
2023/03/08 17:18:14;;;;;;;;;;;;;;;;;;5031902;28;2266;-45
2023/03/08 17:20:42;;;;;;;;;;;;;;;;;;5031084;28;1874;-45
2023/03/08 17:23:10;;;;;;;;;;;;;;;;;;5030477;28;2008;-45
2023/03/08 17:25:38;;;;;;;;;;;;;;;;;;5030534;28;1767;-43